createdAt,value
2019-04-23T00:00:29.379Z,0.00
2019-04-23T00:01:29.967Z,0.00
2019-04-23T00:02:18.509Z,0.00
2019-04-23T00:03:20.333Z,0.00
2019-04-23T00:04:19.655Z,0.00
2019-04-23T00:05:31.813Z,0.00
2019-04-23T00:06:25.865Z,0.00
2019-04-23T00:07:26.557Z,0.00
2019-04-23T00:08:33.953Z,0.00
2019-04-23T00:09:34.121Z,0.00
2019-04-23T00:11:20.550Z,0.00
2019-04-23T00:12:30.084Z,0.00
2019-04-23T00:13:24.779Z,0.00
2019-04-23T00:14:23.369Z,0.00
2019-04-23T00:15:33.851Z,0.00
2019-04-23T00:16:20.436Z,0.00
2019-04-23T00:17:22.734Z,0.00
2019-04-23T00:18:22.278Z,0.00
2019-04-23T00:19:16.937Z,0.00
2019-04-23T00:20:20.125Z,0.00
2019-04-23T00:21:20.647Z,0.00
2019-04-23T00:22:21.394Z,0.00
2019-04-23T00:23:20.678Z,0.00
2019-04-23T00:24:32.012Z,0.00
2019-04-23T00:26:24.025Z,0.00
2019-04-23T00:27:28.907Z,0.00
2019-04-23T00:28:21.599Z,0.00
2019-04-23T00:29:18.507Z,0.00
2019-04-23T00:30:16.946Z,0.00
2019-04-23T00:31:31.672Z,0.00
2019-04-23T00:32:23.416Z,0.00
2019-04-23T00:33:36.791Z,0.00
2019-04-23T00:34:16.109Z,0.00
2019-04-23T00:35:18.118Z,0.00
2019-04-23T00:36:29.601Z,0.00
2019-04-23T00:37:25.951Z,0.00
2019-04-23T00:39:18.200Z,0.00
2019-04-23T00:40:19.049Z,0.00
2019-04-23T00:41:20.819Z,0.00
2019-04-23T00:42:26.259Z,0.00
2019-04-23T00:43:21.742Z,0.00
2019-04-23T00:44:29.362Z,0.00
2019-04-23T00:45:19.555Z,0.00
2019-04-23T00:46:25.100Z,0.00
2019-04-23T00:47:26.801Z,0.00
2019-04-23T00:48:31.199Z,0.00
2019-04-23T00:49:21.131Z,0.00
2019-04-23T00:50:19.368Z,0.00
2019-04-23T00:51:16.782Z,0.00
2019-04-23T00:52:24.291Z,0.00
2019-04-23T00:54:20.779Z,0.00
2019-04-23T00:55:35.181Z,0.00
2019-04-23T00:57:23.987Z,0.00
2019-04-23T00:58:32.398Z,0.00
2019-04-23T00:59:20.692Z,0.00
2019-04-23T01:00:32.127Z,0.00
2019-04-23T01:01:18.549Z,0.00
2019-04-23T01:02:18.042Z,0.00
2019-04-23T01:03:17.425Z,0.00
2019-04-23T01:04:18.687Z,0.00
2019-04-23T01:06:19.756Z,0.00
2019-04-23T01:07:18.884Z,0.00
2019-04-23T01:08:18.826Z,0.00
2019-04-23T01:09:22.180Z,0.00
2019-04-23T01:10:20.199Z,0.00
2019-04-23T01:11:21.116Z,0.00
2019-04-23T01:12:27.536Z,0.00
2019-04-23T01:13:22.960Z,0.00
2019-04-23T01:14:23.126Z,0.00
2019-04-23T01:16:15.055Z,0.00
2019-04-23T01:17:26.430Z,0.00
2019-04-23T01:18:30.241Z,0.00
2019-04-23T01:19:24.393Z,0.00
2019-04-23T01:20:24.180Z,0.00
2019-04-23T01:20:57.731Z,0.00
2019-04-23T01:21:57.977Z,0.00
2019-04-23T01:22:58.976Z,0.00
2019-04-23T01:24:02.727Z,0.00
2019-04-23T01:25:08.458Z,0.00
2019-04-23T01:26:16.165Z,0.00
2019-04-23T01:28:25.345Z,0.00
2019-04-23T01:29:20.190Z,0.00
2019-04-23T01:30:19.677Z,0.00
2019-04-23T01:31:22.831Z,0.00
2019-04-23T01:32:26.808Z,0.00
2019-04-23T01:33:27.097Z,0.00
2019-04-23T01:34:24.437Z,0.00
2019-04-23T01:35:33.148Z,0.00
2019-04-23T01:37:25.675Z,0.00
2019-04-23T01:38:29.314Z,0.00
2019-04-23T01:39:23.327Z,0.00
2019-04-23T01:40:26.874Z,0.00
2019-04-23T01:41:30.407Z,0.00
2019-04-23T01:42:28.973Z,0.00
2019-04-23T01:43:23.485Z,0.00
2019-04-23T01:44:33.747Z,0.00
2019-04-23T01:45:25.965Z,0.00
2019-04-23T01:46:23.430Z,0.00
2019-04-23T01:47:25.171Z,0.00
2019-04-23T01:48:18.068Z,0.00
2019-04-23T01:49:30.915Z,0.00
2019-04-23T01:51:27.818Z,0.00
2019-04-23T01:52:27.826Z,0.00
2019-04-23T01:53:30.091Z,0.00
2019-04-23T01:54:27.304Z,0.00
2019-04-23T01:56:24.193Z,0.00
2019-04-23T01:57:28.859Z,0.00
2019-04-23T01:59:25.123Z,0.00
2019-04-23T02:01:25.552Z,0.00
2019-04-23T02:02:27.940Z,0.00
2019-04-23T02:03:20.795Z,0.00
2019-04-23T02:04:24.417Z,0.00
2019-04-23T02:06:29.684Z,0.00
2019-04-23T02:07:33.039Z,0.00
2019-04-23T02:08:20.708Z,0.00
2019-04-23T02:09:25.587Z,0.00
2019-04-23T02:10:32.867Z,0.00
2019-04-23T02:11:20.165Z,0.00
2019-04-23T02:12:30.546Z,0.00
2019-04-23T02:13:27.629Z,0.00
2019-04-23T02:14:29.638Z,0.00
2019-04-23T02:15:26.540Z,0.00
2019-04-23T02:16:24.642Z,0.00
2019-04-23T02:17:25.418Z,0.00
2019-04-23T02:18:20.639Z,0.00
2019-04-23T02:19:26.291Z,0.00
2019-04-23T02:21:23.917Z,0.00
2019-04-23T02:22:32.523Z,0.00
2019-04-23T02:23:26.542Z,0.00
2019-04-23T02:24:24.972Z,0.00
2019-04-23T02:25:37.755Z,0.00
2019-04-23T02:27:28.342Z,0.00
2019-04-23T02:28:25.402Z,0.00
2019-04-23T02:29:36.628Z,0.00
2019-04-23T02:31:46.618Z,0.00
2019-04-23T02:32:34.064Z,0.00
2019-04-23T02:34:52.955Z,0.00
2019-04-23T02:35:47.120Z,0.00
2019-04-23T02:36:31.407Z,0.00
2019-04-23T02:37:51.531Z,0.00
2019-04-23T02:38:40.206Z,0.00
2019-04-23T02:39:31.135Z,0.00
2019-04-23T02:40:37.854Z,0.00
2019-04-23T02:41:44.241Z,0.00
2019-04-23T02:44:37.285Z,0.00
2019-04-23T02:45:43.959Z,0.00
2019-04-23T02:46:17.714Z,0.00
2019-04-23T02:47:38.348Z,0.00
2019-04-23T02:49:36.005Z,0.00
2019-04-23T02:51:35.457Z,0.00
2019-04-23T02:52:34.240Z,0.00
2019-04-23T02:53:36.153Z,0.00
2019-04-23T02:54:46.413Z,0.00
2019-04-23T02:55:40.848Z,0.00
2019-04-23T02:57:31.206Z,0.00
2019-04-23T02:59:58.243Z,0.00
2019-04-23T03:00:58.515Z,0.00
2019-04-23T03:04:35.771Z,0.00
2019-04-23T03:05:25.764Z,0.00
2019-04-23T03:06:27.073Z,0.00
2019-04-23T03:08:32.507Z,0.00
2019-04-23T03:10:37.956Z,0.00
2019-04-23T03:11:37.489Z,0.00
2019-04-23T03:12:32.174Z,0.00
2019-04-23T03:16:45.920Z,0.00
2019-04-23T03:17:27.380Z,0.00
2019-04-23T03:18:39.608Z,0.00
2019-04-23T03:20:35.056Z,0.00
2019-04-23T03:21:31.195Z,0.00
2019-04-23T03:22:25.214Z,0.00
2019-04-23T03:23:51.963Z,0.00
2019-04-23T03:24:38.947Z,0.00
2019-04-23T03:26:45.494Z,0.00
2019-04-23T03:28:38.249Z,0.00
2019-04-23T03:29:40.501Z,0.00
2019-04-23T03:32:45.515Z,0.00
2019-04-23T03:36:16.062Z,0.00
2019-04-23T03:37:34.052Z,0.00
2019-04-23T03:38:37.959Z,0.00
2019-04-23T03:39:40.288Z,0.00
2019-04-23T03:40:21.269Z,0.00
2019-04-23T03:41:35.210Z,0.00
2019-04-23T03:42:33.125Z,0.00
2019-04-23T03:43:33.638Z,0.00
2019-04-23T03:44:49.221Z,0.00
2019-04-23T03:45:44.373Z,0.00
2019-04-23T03:46:30.335Z,0.00
2019-04-23T03:48:36.382Z,0.00
2019-04-23T03:49:33.314Z,0.00
2019-04-23T03:53:45.486Z,0.00
2019-04-23T03:54:39.801Z,0.00
2019-04-23T03:55:39.874Z,0.00
2019-04-23T03:56:44.717Z,0.00
2019-04-23T03:57:32.827Z,0.00
2019-04-23T03:58:51.278Z,0.00
2019-04-23T03:59:51.992Z,0.00
2019-04-23T04:00:41.064Z,0.00
2019-04-23T04:01:45.334Z,0.00
2019-04-23T04:02:42.079Z,0.00
2019-04-23T04:03:50.249Z,0.00
2019-04-23T04:04:33.223Z,0.00
2019-04-23T04:06:37.703Z,0.00
2019-04-23T04:07:41.948Z,0.00
2019-04-23T04:08:29.160Z,5.63
2019-04-23T04:09:34.727Z,5.63
2019-04-23T04:10:35.977Z,5.63
2019-04-23T04:11:29.155Z,5.63
2019-04-23T04:13:30.712Z,5.63
2019-04-23T04:14:47.427Z,11.25
2019-04-23T04:16:28.228Z,11.25
2019-04-23T04:17:32.935Z,11.25
2019-04-23T04:18:44.403Z,11.25
2019-04-23T04:20:35.722Z,16.88
2019-04-23T04:23:37.656Z,22.50
2019-04-23T04:25:37.066Z,28.13
2019-04-23T04:26:35.200Z,28.13
2019-04-23T04:27:38.540Z,28.13
2019-04-23T04:28:46.442Z,33.75
2019-04-23T04:29:40.367Z,33.75
2019-04-23T04:31:42.234Z,39.38
2019-04-23T04:32:40.128Z,45.00
2019-04-23T04:33:41.383Z,45.00
2019-04-23T04:35:05.541Z,50.63
2019-04-23T04:35:24.871Z,56.25
2019-04-23T04:39:34.014Z,61.88
2019-04-23T04:40:45.663Z,67.50
2019-04-23T04:42:25.215Z,73.13
2019-04-23T04:47:35.472Z,95.63
2019-04-23T04:48:33.397Z,101.25
2019-04-23T04:49:36.308Z,106.88
2019-04-23T04:50:26.380Z,118.13
2019-04-23T04:52:48.878Z,191.25
2019-04-23T04:54:53.916Z,292.50
2019-04-23T04:55:26.682Z,298.13
2019-04-23T04:58:32.283Z,337.50
2019-04-23T05:00:54.741Z,371.25
2019-04-23T05:02:39.148Z,393.75
2019-04-23T05:05:51.373Z,433.13
2019-04-23T05:06:37.450Z,450.00
2019-04-23T05:08:28.728Z,472.50
2019-04-23T05:10:34.630Z,511.88
2019-04-23T05:12:39.048Z,545.63
2019-04-23T05:13:39.241Z,551.25
2019-04-23T05:15:25.499Z,585.00
2019-04-23T05:16:27.807Z,601.88
2019-04-23T05:17:36.015Z,618.75
2019-04-23T05:20:28.188Z,663.75
2019-04-23T05:21:33.152Z,680.63
2019-04-23T05:22:35.582Z,697.50
2019-04-23T05:25:17.912Z,736.88
2019-04-23T05:27:17.883Z,770.63
2019-04-23T05:28:32.987Z,793.13
2019-04-23T05:29:14.973Z,804.38
2019-04-23T05:32:23.723Z,849.38
2019-04-23T05:33:27.432Z,866.25
2019-04-23T05:34:23.964Z,883.13
2019-04-23T05:35:40.004Z,900.00
2019-04-23T05:37:25.822Z,883.13
2019-04-23T05:38:37.065Z,900.00
2019-04-23T05:39:31.332Z,894.38
2019-04-23T05:40:30.210Z,871.88
2019-04-23T05:41:33.855Z,905.63
2019-04-23T05:42:26.529Z,894.38
2019-04-23T05:43:26.393Z,933.75
2019-04-23T05:44:41.689Z,967.50
2019-04-23T05:45:21.803Z,995.63
2019-04-23T05:46:26.371Z,1001.25
2019-04-23T05:47:34.713Z,945.00
2019-04-23T05:48:23.439Z,950.63
2019-04-23T05:49:41.407Z,984.38
2019-04-23T05:50:36.984Z,995.63
2019-04-23T05:51:28.327Z,1046.25
2019-04-23T05:52:27.950Z,1080.00
2019-04-23T05:53:26.983Z,1108.13
2019-04-23T05:54:26.559Z,1091.25
2019-04-23T05:55:20.102Z,1091.25
2019-04-23T05:56:20.582Z,1147.50
2019-04-23T05:57:20.717Z,1181.25
2019-04-23T05:58:40.069Z,1215.00
2019-04-23T05:59:23.086Z,1203.75
2019-04-23T06:00:28.731Z,1203.75
2019-04-23T06:01:41.408Z,1231.88
2019-04-23T06:02:26.176Z,1231.88
2019-04-23T06:03:24.468Z,1282.50
2019-04-23T06:04:26.699Z,1260.00
2019-04-23T06:05:30.573Z,1203.75
2019-04-23T06:06:29.458Z,1203.75
2019-04-23T06:08:27.026Z,1215.00
2019-04-23T06:09:26.527Z,1226.25
2019-04-23T06:10:27.595Z,1226.25
2019-04-23T06:11:30.734Z,1186.88
2019-04-23T06:12:19.029Z,1226.25
2019-04-23T06:13:26.424Z,1231.88
2019-04-23T06:14:40.300Z,1299.38
2019-04-23T06:15:27.064Z,1333.13
2019-04-23T06:16:32.726Z,1372.50
2019-04-23T06:17:27.074Z,1451.25
2019-04-23T06:18:25.420Z,1479.38
2019-04-23T06:20:28.211Z,1462.50
2019-04-23T06:21:28.585Z,1479.38
2019-04-23T06:23:33.085Z,1462.50
2019-04-23T06:24:27.376Z,1445.63
2019-04-23T06:25:39.954Z,1411.88
2019-04-23T06:26:34.550Z,1411.88
2019-04-23T06:28:22.264Z,1316.25
2019-04-23T06:29:39.389Z,1282.50
2019-04-23T06:30:25.725Z,1434.38
2019-04-23T06:31:22.848Z,1361.25
2019-04-23T06:32:25.804Z,1366.88
2019-04-23T06:33:29.114Z,1417.50
2019-04-23T06:34:31.374Z,1411.88
2019-04-23T06:35:23.787Z,1406.25
2019-04-23T06:36:26.028Z,1406.25
2019-04-23T06:37:28.363Z,1400.63
2019-04-23T06:38:41.131Z,1383.75
2019-04-23T06:39:26.256Z,1445.63
2019-04-23T06:40:25.225Z,1428.75
2019-04-23T06:41:23.055Z,1389.38
2019-04-23T06:42:19.475Z,1383.75
2019-04-23T06:43:28.236Z,1411.88
2019-04-23T06:44:28.460Z,1378.13
2019-04-23T06:45:26.464Z,1372.50
2019-04-23T06:46:19.946Z,1372.50
2019-04-23T06:47:20.128Z,1344.38
2019-04-23T06:48:32.164Z,1254.38
2019-04-23T06:49:25.447Z,1220.63
2019-04-23T06:50:21.386Z,933.75
2019-04-23T06:51:29.221Z,849.38
2019-04-23T06:53:21.487Z,1001.25
2019-04-23T06:54:25.151Z,1029.38
2019-04-23T06:55:20.474Z,1051.88
2019-04-23T06:56:26.941Z,1035.00
2019-04-23T06:57:22.248Z,1035.00
2019-04-23T06:58:30.684Z,1040.63
2019-04-23T06:59:24.540Z,1051.88
2019-04-23T07:00:23.962Z,1046.25
2019-04-23T07:01:17.621Z,990.00
2019-04-23T07:02:26.171Z,978.75
2019-04-23T07:04:33.161Z,984.38
2019-04-23T07:05:24.791Z,1029.38
2019-04-23T07:06:29.836Z,1068.75
2019-04-23T07:08:34.551Z,1136.25
2019-04-23T07:09:13.309Z,1175.63
2019-04-23T07:10:25.259Z,1237.50
2019-04-23T07:12:21.958Z,1271.25
2019-04-23T07:13:34.161Z,1271.25
2019-04-23T07:14:21.553Z,1271.25
2019-04-23T07:15:33.769Z,1254.38
2019-04-23T07:16:25.768Z,1383.75
2019-04-23T07:17:20.676Z,1428.75
2019-04-23T07:18:22.546Z,1423.13
2019-04-23T07:20:21.622Z,1636.88
2019-04-23T07:21:21.875Z,1468.13
2019-04-23T07:22:21.648Z,1586.25
2019-04-23T07:23:29.711Z,1603.13
2019-04-23T07:24:26.089Z,1693.13
2019-04-23T07:26:29.858Z,1715.63
2019-04-23T07:27:30.382Z,1721.25
2019-04-23T07:28:29.017Z,1603.13
2019-04-23T07:29:25.420Z,1625.63
2019-04-23T07:30:26.241Z,1738.13
2019-04-23T07:31:40.959Z,1811.25
2019-04-23T07:32:22.910Z,1828.13
2019-04-23T07:33:28.151Z,1828.13
2019-04-23T07:34:20.403Z,1822.50
2019-04-23T07:35:16.079Z,1715.63
2019-04-23T07:37:22.326Z,1783.13
2019-04-23T07:38:32.780Z,1648.13
2019-04-23T07:39:23.547Z,1631.25
2019-04-23T07:40:27.211Z,1479.38
2019-04-23T07:41:33.736Z,1428.75
2019-04-23T07:42:29.903Z,1389.38
2019-04-23T07:43:23.413Z,1530.00
2019-04-23T07:44:33.525Z,1665.00
2019-04-23T07:45:25.778Z,1738.13
2019-04-23T07:46:33.198Z,1766.25
2019-04-23T07:47:28.260Z,1361.25
2019-04-23T07:48:32.050Z,1338.75
2019-04-23T07:49:26.878Z,1395.00
2019-04-23T07:51:29.500Z,1636.88
2019-04-23T07:52:33.826Z,1642.50
2019-04-23T07:53:22.941Z,1710.00
2019-04-23T07:56:22.126Z,1546.88
2019-04-23T07:59:27.733Z,1546.88
2019-04-23T08:00:29.449Z,1575.00
2019-04-23T08:01:18.383Z,1586.25
2019-04-23T08:02:26.113Z,1839.38
2019-04-23T08:03:25.446Z,2041.88
2019-04-23T08:04:29.201Z,2295.00
2019-04-23T08:06:19.265Z,2221.88
2019-04-23T08:08:18.310Z,2115.00
2019-04-23T08:09:24.537Z,2210.63
2019-04-23T08:12:28.114Z,2323.13
2019-04-23T08:13:30.965Z,2176.88
2019-04-23T08:14:23.727Z,2199.38
2019-04-23T08:15:30.428Z,2193.75
2019-04-23T08:17:24.362Z,2188.13
2019-04-23T08:18:29.789Z,2441.25
2019-04-23T08:19:36.846Z,2761.88
2019-04-23T08:20:26.840Z,2925.00
2019-04-23T08:23:28.649Z,2458.13
2019-04-23T08:24:21.813Z,2536.88
2019-04-23T08:25:26.025Z,2497.50
2019-04-23T08:26:42.499Z,2660.63
2019-04-23T08:27:25.073Z,2891.25
2019-04-23T08:28:38.293Z,3211.88
2019-04-23T08:29:24.954Z,3414.38
2019-04-23T08:30:15.891Z,3200.63
2019-04-23T08:31:34.984Z,3037.50
2019-04-23T08:32:28.029Z,2953.13
2019-04-23T08:33:23.356Z,3026.25
2019-04-23T08:34:31.484Z,3054.38
2019-04-23T08:35:23.264Z,3003.75
2019-04-23T08:36:30.685Z,3031.88
2019-04-23T08:37:46.697Z,2941.88
2019-04-23T08:39:30.532Z,2739.38
2019-04-23T08:41:32.112Z,2165.63
2019-04-23T08:42:42.847Z,2266.88
2019-04-23T08:44:27.697Z,2368.13
2019-04-23T08:46:33.513Z,2137.50
2019-04-23T08:47:23.234Z,1957.50
2019-04-23T08:49:29.646Z,1963.13
2019-04-23T08:50:27.419Z,1996.88
2019-04-23T08:51:39.878Z,2013.75
2019-04-23T08:52:36.962Z,2030.63
2019-04-23T08:53:37.850Z,1985.63
2019-04-23T08:54:37.080Z,1878.75
2019-04-23T08:56:34.759Z,1828.13
2019-04-23T08:57:22.743Z,1845.00
2019-04-23T08:59:33.239Z,1822.50
2019-04-23T09:00:23.109Z,1878.75
2019-04-23T09:01:25.578Z,2058.75
2019-04-23T09:02:37.465Z,2137.50
2019-04-23T09:04:27.124Z,2317.50
2019-04-23T09:05:34.726Z,2362.50
2019-04-23T09:06:21.603Z,2430.00
2019-04-23T09:07:33.624Z,2615.63
2019-04-23T09:08:27.355Z,2677.50
2019-04-23T09:09:27.161Z,2666.25
2019-04-23T09:10:24.864Z,2773.13
2019-04-23T09:11:35.241Z,2835.00
2019-04-23T09:12:29.507Z,2722.50
2019-04-23T09:14:17.035Z,3003.75
2019-04-23T09:15:31.529Z,3003.75
2019-04-23T09:16:31.324Z,2880.00
2019-04-23T09:17:28.956Z,2874.38
2019-04-23T09:19:42.835Z,3015.00
2019-04-23T09:20:30.979Z,3195.00
2019-04-23T09:21:21.478Z,3116.25
2019-04-23T09:23:32.992Z,2958.75
2019-04-23T09:24:29.106Z,2503.13
2019-04-23T09:25:31.884Z,2047.50
2019-04-23T09:26:24.642Z,1653.75
2019-04-23T09:28:33.197Z,1361.25
2019-04-23T09:29:36.616Z,1231.88
2019-04-23T09:30:27.715Z,1175.63
2019-04-23T09:31:45.739Z,1136.25
2019-04-23T09:33:36.224Z,1170.00
2019-04-23T09:34:26.116Z,1192.50
2019-04-23T09:35:27.452Z,1203.75
2019-04-23T09:36:27.510Z,1231.88
2019-04-23T09:37:30.864Z,1237.50
2019-04-23T09:38:28.603Z,1248.75
2019-04-23T09:39:27.313Z,1254.38
2019-04-23T09:40:31.597Z,1254.38
2019-04-23T09:41:27.955Z,1260.00
2019-04-23T09:42:44.066Z,1282.50
2019-04-23T09:43:41.735Z,1293.75
2019-04-23T09:45:32.460Z,1310.63
2019-04-23T09:46:26.862Z,1321.88
2019-04-23T09:47:29.385Z,1344.38
2019-04-23T09:48:17.461Z,1378.13
2019-04-23T09:49:29.110Z,1440.00
2019-04-23T09:51:35.857Z,1440.00
2019-04-23T09:54:27.182Z,1366.88
2019-04-23T09:55:29.499Z,1383.75
2019-04-23T09:56:30.168Z,1372.50
2019-04-23T09:57:26.483Z,1378.13
2019-04-23T09:58:37.927Z,1389.38
2019-04-23T10:00:34.700Z,1389.38
2019-04-23T10:01:29.043Z,1372.50
2019-04-23T10:02:14.702Z,1406.25
2019-04-23T10:03:16.181Z,1451.25
2019-04-23T10:04:13.523Z,1451.25
2019-04-23T10:05:11.291Z,1496.25
2019-04-23T10:06:06.196Z,1524.38
2019-04-23T10:07:15.314Z,1586.25
2019-04-23T10:08:05.066Z,1586.25
2019-04-23T10:09:01.731Z,1586.25
2019-04-23T10:09:57.491Z,1608.75
2019-04-23T10:10:57.573Z,1575.00
2019-04-23T10:11:58.740Z,1597.50
2019-04-23T10:12:58.131Z,1625.63
2019-04-23T10:13:58.814Z,1676.25
2019-04-23T10:15:07.341Z,1771.88
2019-04-23T10:15:58.160Z,1811.25
2019-04-23T10:16:58.028Z,1805.63
2019-04-23T10:17:58.255Z,1856.25
2019-04-23T10:18:57.548Z,1833.75
2019-04-23T10:19:58.301Z,1822.50
2019-04-23T10:20:57.546Z,1839.38
2019-04-23T10:21:57.570Z,1861.88
2019-04-23T10:22:57.558Z,1918.13
2019-04-23T10:23:59.119Z,1929.38
2019-04-23T10:24:59.233Z,1906.88
2019-04-23T10:25:58.246Z,1906.88
2019-04-23T10:26:57.826Z,1867.50
2019-04-23T10:28:01.574Z,1845.00
2019-04-23T10:28:58.210Z,1839.38
2019-04-23T10:29:57.598Z,1918.13
2019-04-23T10:30:58.704Z,2053.13
2019-04-23T10:31:57.813Z,2233.13
2019-04-23T10:32:57.914Z,2430.00
2019-04-23T10:33:58.081Z,2390.63
2019-04-23T10:35:10.325Z,2385.00
2019-04-23T10:36:03.222Z,2227.50
2019-04-23T10:36:57.767Z,2289.38
2019-04-23T10:38:04.161Z,2368.13
2019-04-23T10:39:06.186Z,2413.13
2019-04-23T10:40:01.228Z,2368.13
2019-04-23T10:40:58.073Z,2311.88
2019-04-23T10:42:01.219Z,2193.75
2019-04-23T10:42:59.712Z,2188.13
2019-04-23T10:43:58.706Z,2278.13
2019-04-23T10:45:10.875Z,2379.38
2019-04-23T10:46:13.629Z,2401.88
2019-04-23T10:47:23.799Z,2520.00
2019-04-23T10:49:42.744Z,2356.88
2019-04-23T10:50:27.343Z,2334.38
2019-04-23T10:51:30.686Z,2272.50
2019-04-23T10:52:37.527Z,2176.88
2019-04-23T10:55:38.502Z,2092.50
2019-04-23T10:56:36.192Z,2182.50
2019-04-23T10:57:25.275Z,2255.63
2019-04-23T10:59:28.816Z,2137.50
2019-04-23T11:00:26.784Z,2041.88
2019-04-23T11:01:31.910Z,1980.00
2019-04-23T11:03:42.207Z,1985.63
2019-04-23T11:04:42.523Z,2025.00
2019-04-23T11:05:37.653Z,2199.38
2019-04-23T11:06:32.789Z,2278.13
2019-04-23T11:08:27.282Z,2250.00
2019-04-23T11:09:50.060Z,2137.50
2019-04-23T11:10:22.186Z,2075.63
2019-04-23T11:11:32.326Z,2002.50
2019-04-23T11:13:33.826Z,2238.75
2019-04-23T11:14:37.609Z,2244.38
2019-04-23T11:15:31.968Z,2317.50
2019-04-23T11:17:35.787Z,2576.25
2019-04-23T11:18:39.932Z,2570.63
2019-04-23T11:19:32.251Z,2610.00
2019-04-23T11:21:28.340Z,2109.38
2019-04-23T11:23:29.157Z,1344.38
2019-04-23T11:25:31.880Z,1147.50
2019-04-23T11:27:31.326Z,1085.63
2019-04-23T11:28:26.013Z,1068.75
2019-04-23T11:29:34.363Z,1046.25
2019-04-23T11:31:45.008Z,995.63
2019-04-23T11:33:28.873Z,956.25
2019-04-23T11:34:50.349Z,933.75
2019-04-23T11:39:32.692Z,888.75
2019-04-23T11:40:25.522Z,883.13
2019-04-23T11:41:32.412Z,883.13
2019-04-23T11:42:35.714Z,877.50
2019-04-23T11:43:29.059Z,877.50
2019-04-23T11:44:41.565Z,877.50
2019-04-23T11:45:50.670Z,877.50
2019-04-23T11:48:05.218Z,877.50
2019-04-23T11:48:46.502Z,877.50
2019-04-23T11:51:48.465Z,871.88
2019-04-23T11:53:37.894Z,866.25
2019-04-23T11:55:39.195Z,860.63
2019-04-23T11:58:33.954Z,843.75
2019-04-23T11:59:39.257Z,838.13
2019-04-23T12:00:35.247Z,826.88
2019-04-23T12:02:36.991Z,815.63
2019-04-23T12:03:26.854Z,810.00
2019-04-23T12:04:36.596Z,804.38
2019-04-23T12:05:35.472Z,804.38
2019-04-23T12:06:25.019Z,798.75
2019-04-23T12:07:29.827Z,793.13
2019-04-23T12:08:33.337Z,793.13
2019-04-23T12:11:48.976Z,770.63
2019-04-23T12:12:28.475Z,765.00
2019-04-23T12:13:44.771Z,753.75
2019-04-23T12:16:29.099Z,742.50
2019-04-23T12:17:43.867Z,748.13
2019-04-23T12:18:35.044Z,736.88
2019-04-23T12:19:52.073Z,731.25
2019-04-23T12:20:31.870Z,725.63
2019-04-23T12:21:33.077Z,720.00
2019-04-23T12:22:30.080Z,714.38
2019-04-23T12:23:31.618Z,708.75
2019-04-23T12:24:59.624Z,703.13
2019-04-23T12:27:33.210Z,686.25
2019-04-23T12:28:33.735Z,680.63
2019-04-23T12:29:35.290Z,675.00
2019-04-23T12:30:34.283Z,669.38
2019-04-23T12:31:32.692Z,663.75
2019-04-23T12:34:39.840Z,641.25
2019-04-23T12:35:29.142Z,635.63
2019-04-23T12:36:35.534Z,630.00
2019-04-23T12:37:28.591Z,630.00
2019-04-23T12:38:28.389Z,624.38
2019-04-23T12:39:25.941Z,618.75
2019-04-23T12:41:30.543Z,618.75
2019-04-23T12:43:28.837Z,613.13
2019-04-23T12:44:30.713Z,613.13
2019-04-23T12:46:33.092Z,613.13
2019-04-23T12:47:43.746Z,618.75
2019-04-23T12:49:50.406Z,613.13
2019-04-23T12:50:44.876Z,607.50
2019-04-23T12:51:35.301Z,607.50
2019-04-23T12:53:30.572Z,601.88
2019-04-23T12:54:41.480Z,601.88
2019-04-23T12:55:42.177Z,607.50
2019-04-23T12:56:28.163Z,601.88
2019-04-23T12:57:28.756Z,601.88
2019-04-23T12:58:24.797Z,601.88
2019-04-23T12:59:30.534Z,601.88
2019-04-23T13:00:29.016Z,596.25
2019-04-23T13:01:38.475Z,596.25
2019-04-23T13:02:39.390Z,601.88
2019-04-23T13:04:24.982Z,590.63
2019-04-23T13:05:34.038Z,590.63
2019-04-23T13:06:20.734Z,590.63
2019-04-23T13:07:34.915Z,585.00
2019-04-23T13:08:33.301Z,585.00
2019-04-23T13:09:41.796Z,579.38
2019-04-23T13:10:30.348Z,579.38
2019-04-23T13:11:33.336Z,579.38
2019-04-23T13:12:38.134Z,573.75
2019-04-23T13:13:23.893Z,579.38
2019-04-23T13:14:36.368Z,568.13
2019-04-23T13:16:44.658Z,562.50
2019-04-23T13:17:40.589Z,556.88
2019-04-23T13:19:39.894Z,551.25
2019-04-23T13:20:27.964Z,551.25
2019-04-23T13:21:45.001Z,545.63
2019-04-23T13:22:30.497Z,551.25
2019-04-23T13:23:32.542Z,545.63
2019-04-23T13:24:29.199Z,545.63
2019-04-23T13:25:35.001Z,540.00
2019-04-23T13:26:18.341Z,534.38
2019-04-23T13:27:31.643Z,534.38
2019-04-23T13:28:27.434Z,528.75
2019-04-23T13:29:37.727Z,528.75
2019-04-23T13:30:35.547Z,528.75
2019-04-23T13:31:24.216Z,523.13
2019-04-23T13:32:27.661Z,523.13
2019-04-23T13:33:34.735Z,523.13
2019-04-23T13:34:31.849Z,523.13
2019-04-23T13:36:32.768Z,517.50
2019-04-23T13:37:36.986Z,517.50
2019-04-23T13:38:32.092Z,517.50
2019-04-23T13:39:38.909Z,511.88
2019-04-23T13:40:36.240Z,506.25
2019-04-23T13:41:26.086Z,506.25
2019-04-23T13:42:40.349Z,500.63
2019-04-23T13:43:38.041Z,500.63
2019-04-23T13:44:25.446Z,500.63
2019-04-23T13:45:53.045Z,495.00
2019-04-23T13:46:19.762Z,495.00
2019-04-23T13:47:43.348Z,489.38
2019-04-23T13:48:20.150Z,489.38
2019-04-23T13:49:31.650Z,489.38
2019-04-23T13:50:38.830Z,489.38
2019-04-23T13:51:26.245Z,489.38
2019-04-23T13:53:38.502Z,483.75
2019-04-23T13:54:48.413Z,483.75
2019-04-23T13:55:24.822Z,483.75
2019-04-23T14:00:36.907Z,483.75
2019-04-23T14:01:29.057Z,489.38
2019-04-23T14:04:43.145Z,478.13
2019-04-23T14:05:27.043Z,483.75
2019-04-23T14:07:35.924Z,483.75
2019-04-23T14:08:45.133Z,483.75
2019-04-23T14:09:37.220Z,483.75
2019-04-23T14:10:33.800Z,483.75
2019-04-23T14:12:31.939Z,478.13
2019-04-23T14:14:45.270Z,489.38
2019-04-23T14:15:36.928Z,483.75
2019-04-23T14:19:23.199Z,489.38
2019-04-23T14:20:27.706Z,489.38
2019-04-23T14:24:32.077Z,495.00
2019-04-23T14:25:29.403Z,495.00
2019-04-23T14:27:29.751Z,495.00
2019-04-23T14:28:34.326Z,495.00
2019-04-23T14:29:33.549Z,495.00
2019-04-23T14:30:38.407Z,500.63
2019-04-23T14:31:24.001Z,506.25
2019-04-23T14:33:41.902Z,506.25
2019-04-23T14:34:29.271Z,500.63
2019-04-23T14:35:42.544Z,500.63
2019-04-23T14:36:25.343Z,495.00
2019-04-23T14:37:21.982Z,500.63
2019-04-23T14:38:30.609Z,495.00
2019-04-23T14:39:27.416Z,489.38
2019-04-23T14:40:34.384Z,489.38
2019-04-23T14:41:26.139Z,483.75
2019-04-23T14:42:39.916Z,483.75
2019-04-23T14:44:25.257Z,478.13
2019-04-23T14:45:46.791Z,478.13
2019-04-23T14:46:43.773Z,478.13
2019-04-23T14:47:27.934Z,478.13
2019-04-23T14:48:23.162Z,478.13
2019-04-23T14:49:30.920Z,478.13
2019-04-23T14:50:32.311Z,478.13
2019-04-23T14:51:47.527Z,478.13
2019-04-23T14:52:32.044Z,472.50
2019-04-23T14:53:24.810Z,472.50
2019-04-23T14:55:02.381Z,472.50
2019-04-23T14:56:29.454Z,466.88
2019-04-23T14:57:36.458Z,466.88
2019-04-23T14:58:36.082Z,466.88
2019-04-23T14:59:14.896Z,466.88
2019-04-23T15:02:27.151Z,466.88
2019-04-23T15:03:32.561Z,466.88
2019-04-23T15:04:27.181Z,461.25
2019-04-23T15:05:40.879Z,461.25
2019-04-23T15:06:37.977Z,461.25
2019-04-23T15:07:28.249Z,461.25
2019-04-23T15:08:30.163Z,455.63
2019-04-23T15:09:27.315Z,455.63
2019-04-23T15:10:32.644Z,455.63
2019-04-23T15:13:27.557Z,455.63
2019-04-23T15:14:36.141Z,450.00
2019-04-23T15:15:23.699Z,450.00
2019-04-23T15:17:30.520Z,450.00
2019-04-23T15:18:39.397Z,444.38
2019-04-23T15:19:40.386Z,444.38
2019-04-23T15:21:47.330Z,444.38
2019-04-23T15:22:37.204Z,438.75
2019-04-23T15:23:51.404Z,438.75
2019-04-23T15:25:31.704Z,438.75
2019-04-23T15:28:07.552Z,438.75
2019-04-23T15:29:09.389Z,438.75
2019-04-23T15:30:20.844Z,438.75
2019-04-23T15:32:35.013Z,438.75
2019-04-23T15:34:23.517Z,433.13
2019-04-23T15:35:31.440Z,433.13
2019-04-23T15:36:50.896Z,433.13
2019-04-23T15:37:45.155Z,438.75
2019-04-23T15:40:25.149Z,433.13
2019-04-23T15:41:31.775Z,427.50
2019-04-23T15:42:29.517Z,427.50
2019-04-23T15:43:26.478Z,427.50
2019-04-23T15:44:16.178Z,427.50
2019-04-23T15:45:28.564Z,421.88
2019-04-23T15:48:26.655Z,416.25
2019-04-23T15:49:26.595Z,416.25
2019-04-23T15:50:29.803Z,410.63
2019-04-23T15:52:30.285Z,405.00
2019-04-23T15:53:17.469Z,405.00